createdAt,value
2018-07-09T00:28:31.591Z,29.7
2018-07-09T00:34:25.639Z,29.8
2018-07-09T00:43:16.648Z,30.1
2018-07-09T00:55:04.672Z,30.4
2018-07-09T00:58:01.499Z,30.4
2018-07-09T01:03:55.603Z,30.7
2018-07-09T01:06:52.534Z,30.8
2018-07-09T01:15:43.612Z,31
2018-07-09T01:18:40.546Z,31.1
2018-07-09T01:21:37.670Z,31
2018-07-09T01:24:34.590Z,31
2018-07-09T01:27:31.670Z,31
2018-07-09T01:30:28.574Z,31
2018-07-09T01:33:25.621Z,31.1
2018-07-09T01:36:22.570Z,31.2
2018-07-09T01:42:16.659Z,31.3
2018-07-09T01:48:10.849Z,31.4
2018-07-09T01:51:07.630Z,31.6
2018-07-09T01:54:04.621Z,31.5
2018-07-09T01:57:01.568Z,31.6
2018-07-09T01:59:58.662Z,31.8
2018-07-09T02:02:55.668Z,31.8
2018-07-09T02:05:52.930Z,32
2018-07-09T02:08:49.686Z,32
2018-07-09T02:20:38.014Z,32.2
2018-07-09T02:23:35.181Z,32.3
2018-07-09T02:26:32.351Z,32.2
2018-07-09T02:29:29.148Z,32.1
2018-07-09T02:32:25.755Z,32.2
2018-07-09T02:47:11.423Z,32.2
2018-07-09T02:50:07.698Z,32.2
2018-07-09T02:53:05.047Z,32.2
2018-07-09T02:56:01.746Z,32.5
2018-07-09T03:07:49.976Z,33
2018-07-09T03:25:31.959Z,33.2
2018-07-09T03:28:28.753Z,33.3
2018-07-09T03:31:25.920Z,33.5
2018-07-09T03:40:16.985Z,33.8
2018-07-09T03:49:08.006Z,33.9
2018-07-09T03:55:01.831Z,34
2018-07-09T04:03:53.068Z,34.1
2018-07-09T04:06:49.880Z,34.1
2018-07-09T04:09:47.075Z,34.2
2018-07-09T04:12:43.901Z,34.2
2018-07-09T04:15:40.906Z,34.3
2018-07-09T04:18:37.889Z,34.4
2018-07-09T04:21:35.038Z,34.4
2018-07-09T04:24:31.859Z,34.5
2018-07-09T04:27:28.896Z,34.6
2018-07-09T04:30:25.857Z,34.6
2018-07-09T04:36:19.973Z,34.7
2018-07-09T04:39:16.916Z,34.7
2018-07-09T04:45:11.108Z,34.8
2018-07-09T04:48:07.930Z,34.7
2018-07-09T04:51:05.180Z,34.6
2018-07-09T04:54:01.960Z,34.6
2018-07-09T04:56:59.211Z,34.4
2018-07-09T04:59:55.901Z,34.2
2018-07-09T05:05:50.124Z,34
2018-07-09T05:08:46.933Z,33.7
2018-07-09T05:11:43.954Z,33.6
2018-07-09T05:14:40.947Z,33.6
2018-07-09T05:17:38.099Z,33.5
2018-07-09T05:20:35.043Z,33.6
2018-07-09T05:23:32.154Z,33.5
2018-07-09T05:26:28.938Z,33.5
2018-07-09T05:29:26.040Z,33.4
2018-07-09T05:32:23.013Z,33.3
2018-07-09T05:35:20.208Z,33.2
2018-07-09T05:38:16.980Z,33.1
2018-07-09T05:41:14.191Z,33.1
2018-07-09T05:44:10.967Z,33
2018-07-09T05:47:08.180Z,33
2018-07-09T05:50:05.023Z,33
2018-07-09T05:55:59.013Z,32.8
2018-07-09T05:58:56.004Z,32.8
2018-07-09T06:01:53.200Z,32.8
2018-07-09T06:04:50.057Z,32.7
2018-07-09T06:07:47.228Z,32.7
2018-07-09T06:10:44.092Z,32.7
2018-07-09T06:13:41.209Z,32.7
2018-07-09T06:16:38.049Z,32.8
2018-07-09T06:19:35.358Z,33
2018-07-09T06:25:29.302Z,33.1
2018-07-09T06:28:26.071Z,33.1
2018-07-09T06:34:20.223Z,33.2
2018-07-09T06:37:17.053Z,33.2
2018-07-09T06:40:14.305Z,33.4
2018-07-09T06:43:11.088Z,33.7
2018-07-09T06:46:08.378Z,33.8
2018-07-09T06:49:05.137Z,34
2018-07-09T06:52:02.197Z,34.1
2018-07-09T06:57:56.196Z,34.3
2018-07-09T07:00:53.094Z,34.4
2018-07-09T07:03:50.334Z,34.4
2018-07-09T07:09:44.203Z,34.7
2018-07-09T07:12:41.193Z,34.8
2018-07-09T07:15:38.411Z,34.6
2018-07-09T07:21:32.336Z,34.6
2018-07-09T07:27:26.754Z,34.6
2018-07-09T07:30:23.145Z,34.6
2018-07-09T07:36:17.393Z,34.8
2018-07-09T07:39:14.169Z,34.8
2018-07-09T07:51:02.445Z,35
2018-07-09T07:53:59.238Z,35
2018-07-09T08:08:44.409Z,34.6
2018-07-09T08:14:38.485Z,34.7
2018-07-09T08:17:35.284Z,34.7
2018-07-09T08:23:29.292Z,34.1
2018-07-09T08:26:26.234Z,33.9
2018-07-09T08:29:23.524Z,33.7
2018-07-09T08:32:20.307Z,33.5
2018-07-09T08:35:17.538Z,33.4
2018-07-09T08:38:14.320Z,33.3
2018-07-09T08:44:08.322Z,33
2018-07-09T08:47:05.283Z,33
2018-07-09T08:55:56.507Z,32.7
2018-07-09T09:01:50.466Z,32.6
2018-07-09T09:04:47.310Z,32.5
2018-07-09T09:07:44.596Z,32.4
2018-07-09T09:10:41.328Z,32.4
2018-07-09T09:13:38.591Z,32.4
2018-07-09T09:16:35.406Z,32.3
2018-07-09T09:25:26.606Z,32.1
2018-07-09T09:28:23.309Z,32
2018-07-09T09:34:17.423Z,32
2018-07-09T09:40:11.609Z,31.9
2018-07-09T09:43:08.406Z,31.9
2018-07-09T09:46:05.587Z,31.9
2018-07-09T09:49:02.377Z,31.9
2018-07-09T09:51:59.618Z,31.9
2018-07-09T09:54:56.444Z,31.9
2018-07-09T09:57:53.566Z,31.9
2018-07-09T10:06:44.629Z,31.8
2018-07-09T10:12:38.607Z,31.8
2018-07-09T10:15:35.411Z,31.8
2018-07-09T10:18:32.628Z,31.8
2018-07-09T10:24:26.466Z,31.7
2018-07-09T10:30:20.740Z,31.6
2018-07-09T10:33:17.401Z,31.6
2018-07-09T10:36:14.703Z,31.5
2018-07-09T10:39:11.512Z,31.5
2018-07-09T10:42:08.469Z,31.4
2018-07-09T10:48:02.622Z,31.3
2018-07-09T10:59:50.760Z,31.1
2018-07-09T11:08:41.541Z,31.1
2018-07-09T11:17:32.744Z,31
2018-07-09T11:26:23.573Z,30.8
2018-07-09T11:35:14.771Z,30.8
2018-07-09T11:38:11.602Z,30.8
2018-07-09T11:55:53.784Z,30.6
2018-07-09T11:58:50.642Z,30.6
2018-07-09T12:07:41.847Z,30.5
2018-07-09T12:10:38.663Z,30.5
2018-07-09T12:19:29.809Z,30.5
2018-07-09T12:22:26.652Z,30.5
2018-07-09T12:25:23.831Z,30.4
2018-07-09T12:28:20.585Z,30.4
2018-07-09T12:31:17.917Z,30.4
2018-07-09T12:34:14.665Z,30.4
2018-07-09T12:40:08.891Z,30.4
2018-07-09T12:43:05.716Z,30.4
2018-07-09T12:51:56.830Z,30.3
2018-07-09T12:54:53.804Z,30.3
2018-07-09T13:00:47.771Z,30.3
2018-07-09T13:06:41.895Z,30.2
2018-07-09T13:21:26.855Z,30.2
2018-07-09T13:27:20.903Z,30.2
2018-07-09T13:33:15.004Z,30.1
2018-07-09T13:39:08.968Z,30.1
2018-07-09T13:42:05.801Z,30.2
2018-07-09T13:50:57.030Z,30.2
2018-07-09T14:14:33.003Z,30.1
2018-07-09T14:17:29.773Z,30
2018-07-09T14:20:27.080Z,30
2018-07-09T14:29:17.910Z,30
2018-07-09T14:32:14.878Z,30
2018-07-09T14:38:09.025Z,30
2018-07-09T14:41:05.849Z,30
2018-07-09T14:44:02.842Z,30
2018-07-09T14:46:59.870Z,30
2018-07-09T14:49:57.095Z,30
2018-07-09T14:52:53.910Z,29.9
2018-07-09T14:55:51.097Z,29.9
2018-07-09T15:10:36.058Z,29.9
2018-07-09T15:25:21.070Z,29.8
2018-07-09T15:37:08.951Z,29.8
2018-07-09T15:43:03.058Z,29.9
2018-07-09T15:45:59.922Z,29.9
2018-07-09T15:48:57.063Z,29.9
2018-07-09T15:54:50.976Z,29.8
2018-07-09T15:57:47.926Z,29.8
2018-07-09T16:00:45.074Z,29.8
2018-07-09T16:03:42.004Z,29.8
2018-07-09T16:09:36.071Z,29.8
2018-07-09T16:15:30.079Z,29.8
2018-07-09T16:18:27.022Z,29.8
2018-07-09T16:24:21.145Z,29.8
2018-07-09T16:27:18.035Z,29.8
2018-07-09T16:30:15.062Z,29.8
2018-07-09T16:33:12.026Z,29.8
2018-07-09T16:36:09.147Z,29.8
2018-07-09T16:39:06.040Z,29.8
2018-07-09T16:42:03.160Z,29.8
2018-07-09T16:44:59.968Z,29.8
2018-07-09T16:50:54.101Z,29.8
2018-07-09T16:56:48.094Z,29.7
2018-07-09T17:05:39.170Z,29.6
2018-07-09T17:08:36.051Z,29.7
2018-07-09T17:11:33.103Z,29.7
2018-07-09T17:14:30.083Z,29.7
2018-07-09T17:17:27.104Z,29.6
2018-07-09T17:20:24.118Z,29.6
2018-07-09T17:23:21.176Z,29.6
2018-07-09T17:26:18.150Z,29.6
2018-07-09T17:29:15.177Z,29.6
2018-07-09T17:32:12.178Z,29.5
2018-07-09T17:35:09.128Z,29.4
2018-07-09T17:38:06.037Z,29.3
2018-07-09T17:41:03.120Z,29.2
2018-07-09T17:46:57.358Z,28.9
2018-07-09T17:49:54.265Z,28.8
2018-07-09T17:52:51.364Z,28.7
2018-07-09T17:55:48.128Z,28.6
2018-07-09T18:01:42.157Z,28.5
2018-07-09T18:04:39.117Z,28.5
2018-07-09T18:07:36.318Z,28.5
2018-07-09T18:13:30.391Z,28.5
2018-07-09T18:16:27.130Z,28.4
2018-07-09T18:19:24.362Z,28.3
2018-07-09T18:22:21.143Z,28.3
2018-07-09T18:25:18.371Z,28.2
2018-07-09T18:28:15.196Z,28.1
2018-07-09T18:31:12.198Z,28
2018-07-09T18:34:09.157Z,27.8
2018-07-09T18:37:06.441Z,27.5
2018-07-09T18:40:03.227Z,27.4
2018-07-09T18:43:00.411Z,27.2
2018-07-09T18:48:54.450Z,27.2
2018-07-09T18:51:51.213Z,27.1
2018-07-09T19:00:42.389Z,27
2018-07-09T19:03:39.230Z,27
2018-07-09T19:06:36.402Z,26.9
2018-07-09T19:09:33.189Z,26.9
2018-07-09T19:12:30.397Z,26.8
2018-07-09T19:15:27.218Z,26.8
2018-07-09T19:18:24.442Z,26.8
2018-07-09T19:21:21.230Z,26.9
2018-07-09T19:24:18.298Z,26.9
2018-07-09T19:27:15.276Z,26.8
2018-07-09T19:30:12.873Z,26.8
2018-07-09T19:36:06.484Z,26.8
2018-07-09T19:39:03.296Z,26.8
2018-07-09T19:44:57.583Z,26.7
2018-07-09T19:47:54.627Z,26.6
2018-07-09T19:50:51.564Z,26.7
2018-07-09T19:56:45.580Z,26.6
2018-07-09T19:59:42.278Z,26.6
2018-07-09T20:02:39.579Z,26.5
2018-07-09T20:08:34.003Z,26.5
2018-07-09T20:11:30.356Z,26.4
2018-07-09T20:14:27.506Z,26.3
2018-07-09T20:17:24.360Z,26.3
2018-07-09T20:20:21.599Z,26.3
2018-07-09T20:23:18.363Z,26.3
2018-07-09T20:26:15.580Z,26.2
2018-07-09T20:29:12.336Z,26.2
2018-07-09T20:35:06.525Z,26.2
2018-07-09T20:41:00.603Z,26.2
2018-07-09T20:43:57.374Z,26.2
2018-07-09T20:46:54.540Z,26.2
2018-07-09T20:49:51.345Z,26.2
2018-07-09T20:55:45.581Z,26.2
2018-07-09T20:58:42.357Z,26.2
2018-07-09T21:07:33.638Z,26.2
2018-07-09T21:10:30.431Z,26.2
2018-07-09T21:16:24.653Z,26.2
2018-07-09T21:22:18.482Z,26.3
2018-07-09T21:31:09.641Z,26.3
2018-07-09T21:34:06.484Z,26.2
2018-07-09T21:37:03.678Z,26.2
2018-07-09T21:40:00.485Z,26.2
2018-07-09T21:42:57.652Z,26.2
2018-07-09T21:45:54.498Z,26.2
2018-07-09T21:48:51.680Z,26.2
2018-07-09T21:51:48.417Z,26.2
2018-07-09T21:54:45.631Z,26.2
2018-07-09T21:57:42.500Z,26.2
2018-07-09T22:00:39.680Z,26.1
2018-07-09T22:03:36.465Z,26.1
2018-07-09T22:06:33.687Z,26.2
2018-07-09T22:09:30.511Z,26.2
2018-07-09T22:15:25.221Z,26.1
2018-07-09T22:21:18.722Z,26.1
2018-07-09T22:24:15.503Z,26.1
2018-07-09T22:27:12.718Z,26
2018-07-09T22:30:09.504Z,26
2018-07-09T22:33:06.744Z,26
2018-07-09T22:39:00.714Z,26
2018-07-09T22:41:57.513Z,26
2018-07-09T22:47:51.720Z,26
2018-07-09T22:50:48.564Z,26
2018-07-09T22:53:45.745Z,26
2018-07-09T22:56:42.564Z,26
2018-07-09T22:59:39.689Z,26
2018-07-09T23:02:36.601Z,26
2018-07-09T23:05:33.795Z,26
2018-07-09T23:11:27.756Z,26
2018-07-09T23:14:24.543Z,26
2018-07-09T23:17:21.727Z,25.9
2018-07-09T23:20:18.531Z,25.9
2018-07-09T23:23:15.851Z,25.9
2018-07-09T23:26:12.754Z,25.9
2018-07-09T23:29:09.586Z,25.9
2018-07-09T23:32:06.627Z,25.9
2018-07-09T23:35:03.809Z,25.9
2018-07-09T23:38:00.637Z,25.9
2018-07-09T23:40:57.800Z,25.9
2018-07-09T23:43:54.644Z,25.9
2018-07-09T23:52:45.801Z,26
2018-07-09T23:55:42.643Z,26
2018-07-09T23:58:39.838Z,26
